createdAt,value
2022-10-14T00:01:05.889Z,5.13
2022-10-14T00:03:33.160Z,4.95
2022-10-14T00:05:59.867Z,5.30
2022-10-14T00:08:26.646Z,5.32
2022-10-14T00:10:54.382Z,4.78
2022-10-14T00:13:21.207Z,4.57
2022-10-14T00:15:47.948Z,4.40
2022-10-14T00:18:16.789Z,4.70
2022-10-14T00:20:57.095Z,4.85
2022-10-14T00:23:24.655Z,3.90
2022-10-14T00:25:51.531Z,3.95
2022-10-14T00:28:19.711Z,3.78
2022-10-14T00:30:56.543Z,4.20
2022-10-14T00:33:24.193Z,3.42
2022-10-14T00:36:00.212Z,4.50
2022-10-14T00:38:34.480Z,4.78
2022-10-14T00:41:01.675Z,5.03
2022-10-14T00:43:28.996Z,4.53
2022-10-14T00:45:55.783Z,4.30
2022-10-14T00:48:26.292Z,4.32
2022-10-14T00:50:57.188Z,4.35
2022-10-14T00:53:24.126Z,4.10
2022-10-14T00:55:52.794Z,4.35
2022-10-14T00:58:23.414Z,5.20
2022-10-14T01:00:50.184Z,4.65
2022-10-14T01:03:20.449Z,4.45
2022-10-14T01:06:18.173Z,4.57
2022-10-14T01:09:04.561Z,4.43
2022-10-14T01:11:40.985Z,5.10
2022-10-14T01:14:22.715Z,4.95
2022-10-14T01:19:28.207Z,5.13
2022-10-14T01:22:11.850Z,4.38
2022-10-14T01:25:14.347Z,5.18
2022-10-14T01:27:59.125Z,4.10
2022-10-14T01:30:35.160Z,3.90
2022-10-14T01:33:20.228Z,3.75
2022-10-14T01:36:15.096Z,4.03
2022-10-14T01:38:49.130Z,3.95
2022-10-14T01:41:23.461Z,3.05
2022-10-14T01:43:52.234Z,3.75
2022-10-14T01:46:22.000Z,4.03
2022-10-14T01:48:53.824Z,3.10
2022-10-14T01:51:33.967Z,3.83
2022-10-14T01:54:06.482Z,3.05
2022-10-14T01:56:40.196Z,3.47
2022-10-14T01:59:10.162Z,3.15
2022-10-14T02:01:37.247Z,2.95
2022-10-14T02:04:18.685Z,4.30
2022-10-14T02:07:11.459Z,3.58
2022-10-14T02:09:43.125Z,4.10
2022-10-14T02:12:47.941Z,3.90
2022-10-14T02:15:32.872Z,3.47
2022-10-14T02:18:17.780Z,3.15
2022-10-14T02:20:44.462Z,4.25
2022-10-14T02:23:13.436Z,3.80
2022-10-14T02:25:43.475Z,3.88
2022-10-14T02:28:15.256Z,4.05
2022-10-14T02:30:45.771Z,3.63
2022-10-14T02:33:20.862Z,3.60
2022-10-14T02:35:49.915Z,3.13
2022-10-14T02:38:19.595Z,3.60
2022-10-14T02:40:49.828Z,4.18
2022-10-14T02:43:17.399Z,3.67
2022-10-14T02:45:44.676Z,4.50
2022-10-14T02:48:12.530Z,4.40
2022-10-14T02:50:40.316Z,3.97
2022-10-14T02:53:07.946Z,4.38
2022-10-14T02:55:34.668Z,3.83
2022-10-14T02:58:01.681Z,3.67
2022-10-14T03:00:28.541Z,3.80
2022-10-14T03:02:56.333Z,3.92
2022-10-14T03:05:25.201Z,3.38
2022-10-14T03:07:53.254Z,4.85
2022-10-14T03:10:21.809Z,3.70
2022-10-14T03:12:48.993Z,3.50
2022-10-14T03:15:25.107Z,4.18
2022-10-14T03:17:52.744Z,3.70
2022-10-14T03:20:24.158Z,3.95
2022-10-14T03:22:55.551Z,3.25
2022-10-14T03:25:24.112Z,3.40
2022-10-14T03:28:04.759Z,4.25
2022-10-14T03:30:42.161Z,3.88
2022-10-14T03:33:15.556Z,2.80
2022-10-14T03:35:53.510Z,3.55
2022-10-14T03:38:28.428Z,3.90
2022-10-14T03:40:58.521Z,3.63
2022-10-14T03:43:25.362Z,3.55
2022-10-14T03:45:57.112Z,4.38
2022-10-14T03:48:25.683Z,3.60
2022-10-14T03:50:56.522Z,4.15
2022-10-14T03:53:24.075Z,3.30
2022-10-14T03:55:51.053Z,3.53
2022-10-14T03:58:17.873Z,3.88
2022-10-14T04:00:52.511Z,4.10
2022-10-14T04:03:32.999Z,3.55
2022-10-14T04:06:00.522Z,4.10
2022-10-14T04:08:29.452Z,3.88
2022-10-14T04:11:01.047Z,4.70
2022-10-14T04:16:08.175Z,3.60
2022-10-14T04:18:55.177Z,3.63
2022-10-14T04:21:22.780Z,3.22
2022-10-14T04:23:52.502Z,3.17
2022-10-14T04:26:29.697Z,3.42
2022-10-14T04:28:57.932Z,3.83
2022-10-14T04:31:33.268Z,3.85
2022-10-14T04:34:02.420Z,3.88
2022-10-14T04:36:37.070Z,3.22
2022-10-14T04:39:11.069Z,3.80
2022-10-14T04:41:38.146Z,3.20
2022-10-14T04:44:05.611Z,4.15
2022-10-14T04:46:38.833Z,4.40
2022-10-14T04:49:05.595Z,4.85
2022-10-14T04:51:38.501Z,5.45
2022-10-14T04:54:17.804Z,5.22
2022-10-14T04:56:49.839Z,5.07
2022-10-14T04:59:16.906Z,4.78
2022-10-14T05:02:09.786Z,5.28
2022-10-14T05:04:46.226Z,4.65
2022-10-14T05:07:13.984Z,5.50
2022-10-14T05:09:44.067Z,5.93
2022-10-14T05:12:23.925Z,4.70
2022-10-14T05:14:56.489Z,4.25
2022-10-14T05:17:30.024Z,4.10
2022-10-14T05:19:56.741Z,3.78
2022-10-14T05:22:26.111Z,3.72
2022-10-14T05:24:53.212Z,3.75
2022-10-14T05:27:20.451Z,3.67
2022-10-14T05:29:48.845Z,3.38
2022-10-14T05:32:16.345Z,3.65
2022-10-14T05:34:47.628Z,3.03
2022-10-14T05:37:23.306Z,3.35
2022-10-14T05:39:52.533Z,3.97
2022-10-14T05:42:23.297Z,4.40
2022-10-14T05:44:53.177Z,3.80
2022-10-14T05:47:20.449Z,7.70
2022-10-14T05:49:51.380Z,9.23
2022-10-14T05:52:18.129Z,11.27
2022-10-14T05:54:45.395Z,8.50
2022-10-14T05:57:18.282Z,8.43
2022-10-14T05:59:45.243Z,7.72
2022-10-14T06:02:13.859Z,6.95
2022-10-14T06:04:42.455Z,5.10
2022-10-14T06:07:10.346Z,6.20
2022-10-14T06:09:38.369Z,5.70
2022-10-14T06:12:05.668Z,3.40
2022-10-14T06:14:33.018Z,2.67
2022-10-14T06:17:00.294Z,2.58
2022-10-14T06:19:27.168Z,3.50
2022-10-14T06:21:56.331Z,2.70
2022-10-14T06:24:23.018Z,2.60
2022-10-14T06:26:49.842Z,2.47
2022-10-14T06:29:17.297Z,2.45
2022-10-14T06:31:44.044Z,2.80
2022-10-14T06:34:10.986Z,3.10
2022-10-14T06:36:40.092Z,2.65
2022-10-14T06:39:06.815Z,2.45
2022-10-14T06:41:33.550Z,2.50
2022-10-14T06:44:00.258Z,2.55
2022-10-14T06:46:27.021Z,2.97
2022-10-14T06:48:53.687Z,2.60
2022-10-14T06:51:20.381Z,2.22
2022-10-14T06:53:47.074Z,3.25
2022-10-14T06:56:13.806Z,2.55
2022-10-14T06:58:40.489Z,2.40
2022-10-14T07:01:07.963Z,2.38
2022-10-14T07:03:39.325Z,2.75
2022-10-14T07:06:07.587Z,2.80
2022-10-14T07:08:34.797Z,2.75
2022-10-14T07:11:02.086Z,3.10
2022-10-14T07:13:29.267Z,3.75
2022-10-14T07:15:55.995Z,3.83
2022-10-14T07:18:22.714Z,4.47
2022-10-14T07:20:49.422Z,5.38
2022-10-14T07:23:16.752Z,5.63
2022-10-14T07:25:44.055Z,6.13
2022-10-14T07:28:10.847Z,4.97
2022-10-14T07:30:38.111Z,5.60
2022-10-14T07:33:04.871Z,4.15
2022-10-14T07:35:31.711Z,4.55
2022-10-14T07:37:59.454Z,3.47
2022-10-14T07:40:27.043Z,3.83
2022-10-14T07:42:53.754Z,3.17
2022-10-14T07:45:21.265Z,2.90
2022-10-14T07:47:49.679Z,3.80
2022-10-14T07:50:18.365Z,3.53
2022-10-14T07:52:45.154Z,3.30
2022-10-14T07:55:12.045Z,3.58
2022-10-14T07:57:38.816Z,2.40
2022-10-14T08:00:06.374Z,2.60
2022-10-14T08:02:38.738Z,2.40
2022-10-14T08:05:33.051Z,2.40
2022-10-14T08:07:52.682Z,2.38
2022-10-14T08:10:19.373Z,2.38
2022-10-14T08:12:46.293Z,2.45
2022-10-14T08:15:12.975Z,2.50
2022-10-14T08:17:39.659Z,2.40
2022-10-14T08:20:06.998Z,2.30
2022-10-14T08:22:33.897Z,2.03
2022-10-14T08:25:00.590Z,2.67
2022-10-14T08:27:27.421Z,3.10
2022-10-14T08:29:54.724Z,2.70
2022-10-14T08:32:23.557Z,2.38
2022-10-14T08:34:50.579Z,3.15
2022-10-14T08:37:17.307Z,2.35
2022-10-14T08:39:44.407Z,2.53
2022-10-14T08:42:30.998Z,2.55
2022-10-14T08:45:31.917Z,2.30
2022-10-14T08:48:02.874Z,2.23
2022-10-14T08:50:43.709Z,2.50
2022-10-14T08:53:31.923Z,2.33
2022-10-14T08:56:01.220Z,1.88
2022-10-14T08:58:45.194Z,2.45
2022-10-14T09:01:28.744Z,2.17
2022-10-14T09:04:02.302Z,1.98
2022-10-14T09:06:34.519Z,2.17
2022-10-14T09:09:09.001Z,2.40
2022-10-14T09:11:41.068Z,2.22
2022-10-14T09:14:13.701Z,2.33
2022-10-14T09:16:44.021Z,2.38
2022-10-14T09:19:14.491Z,2.20
2022-10-14T09:21:53.490Z,2.35
2022-10-14T09:24:25.284Z,2.70
2022-10-14T09:26:59.759Z,2.67
2022-10-14T09:29:37.816Z,2.55
2022-10-14T09:32:12.264Z,2.30
2022-10-14T09:34:49.049Z,2.50
2022-10-14T09:37:19.580Z,2.05
2022-10-14T09:39:47.359Z,2.20
2022-10-14T09:42:19.941Z,2.63
2022-10-14T09:47:55.924Z,2.20
2022-10-14T09:50:29.713Z,2.20
2022-10-14T09:53:01.555Z,1.95
2022-10-14T09:55:28.639Z,2.00
2022-10-14T09:58:14.135Z,2.17
2022-10-14T10:00:41.281Z,2.10
2022-10-14T10:03:08.105Z,1.67
2022-10-14T10:05:36.109Z,1.80
2022-10-14T10:08:18.300Z,1.83
2022-10-14T10:11:05.566Z,1.48
2022-10-14T10:13:45.011Z,1.52
2022-10-14T10:16:34.717Z,1.38
2022-10-14T10:19:34.846Z,1.45
2022-10-14T10:25:07.952Z,1.40
2022-10-14T10:27:46.536Z,1.27
2022-10-14T10:30:27.893Z,1.48
2022-10-14T10:33:00.236Z,1.60
2022-10-14T10:35:54.704Z,1.10
2022-10-14T10:38:21.386Z,1.25
2022-10-14T10:41:08.872Z,1.20
2022-10-14T10:43:42.515Z,1.10
2022-10-14T10:46:14.974Z,1.70
2022-10-14T10:48:57.638Z,1.20
2022-10-14T10:51:38.097Z,1.10
2022-10-14T10:54:19.371Z,1.27
2022-10-14T10:56:54.664Z,1.00
2022-10-14T10:59:47.354Z,1.15
2022-10-14T11:02:54.811Z,0.98
2022-10-14T11:05:33.448Z,1.50
2022-10-14T11:08:39.104Z,1.13
2022-10-14T11:11:43.001Z,0.90
2022-10-14T11:14:15.871Z,1.10
2022-10-14T11:16:57.907Z,0.90
2022-10-14T11:19:34.459Z,0.98
2022-10-14T11:22:58.824Z,1.20
2022-10-14T11:25:51.157Z,0.90
2022-10-14T11:28:36.306Z,1.00
2022-10-14T11:31:26.710Z,1.00
2022-10-14T11:34:15.762Z,1.77
2022-10-14T11:37:08.960Z,1.70
2022-10-14T11:39:57.941Z,1.67
2022-10-14T11:42:27.426Z,1.60
2022-10-14T11:45:02.072Z,1.55
2022-10-14T11:47:34.457Z,1.40
2022-10-14T11:50:01.192Z,1.30
2022-10-14T11:52:41.445Z,1.50
2022-10-14T11:55:29.032Z,1.15
2022-10-14T11:58:24.207Z,2.03
2022-10-14T12:00:54.769Z,2.63
2022-10-14T12:03:48.455Z,3.80
2022-10-14T12:06:25.314Z,2.42
2022-10-14T12:09:03.322Z,2.25
2022-10-14T12:11:38.303Z,2.30
2022-10-14T12:14:24.837Z,2.10
2022-10-14T12:16:53.116Z,1.60
2022-10-14T12:19:27.424Z,1.33
2022-10-14T12:21:58.953Z,1.50
2022-10-14T12:24:36.145Z,1.38
2022-10-14T12:27:05.768Z,1.38
2022-10-14T12:29:36.669Z,1.30
2022-10-14T12:32:03.314Z,0.88
2022-10-14T12:34:41.214Z,1.10
2022-10-14T12:37:34.967Z,1.42
2022-10-14T12:40:02.289Z,1.52
2022-10-14T12:43:03.001Z,1.10
2022-10-14T12:45:33.154Z,1.00
2022-10-14T12:50:40.555Z,1.17
2022-10-14T12:53:18.572Z,1.23
2022-10-14T12:55:52.749Z,0.90
2022-10-14T12:58:52.957Z,1.40
2022-10-14T13:01:23.546Z,1.30
2022-10-14T13:06:36.604Z,1.02
2022-10-14T13:09:12.124Z,1.10
2022-10-14T13:11:43.662Z,1.10
2022-10-14T13:16:52.008Z,0.70
2022-10-14T13:19:33.711Z,0.55
2022-10-14T13:22:02.545Z,0.60
2022-10-14T13:24:35.274Z,0.73
2022-10-14T13:27:29.956Z,0.85
2022-10-14T13:30:10.549Z,0.60
2022-10-14T13:32:49.025Z,0.80
2022-10-14T13:35:51.497Z,0.80
2022-10-14T13:38:21.723Z,0.40
2022-10-14T13:40:54.084Z,0.57
2022-10-14T13:43:33.657Z,0.47
2022-10-14T13:46:12.287Z,0.77
2022-10-14T13:48:48.758Z,0.50
2022-10-14T13:51:32.018Z,0.70
2022-10-14T13:54:17.712Z,0.57
2022-10-14T13:57:12.596Z,0.50
2022-10-14T14:00:33.156Z,0.50
2022-10-14T14:02:41.912Z,0.50
2022-10-14T14:05:16.157Z,0.57
2022-10-14T14:10:32.327Z,1.10
2022-10-14T14:13:04.900Z,0.70
2022-10-14T14:15:31.635Z,0.80
2022-10-14T14:17:58.439Z,0.50
2022-10-14T14:20:33.892Z,0.65
2022-10-14T14:23:00.690Z,0.80
2022-10-14T14:25:46.511Z,0.60
2022-10-14T14:28:18.860Z,0.50
2022-10-14T14:30:55.343Z,0.30
2022-10-14T14:33:44.030Z,0.60
2022-10-14T14:36:27.481Z,0.40
2022-10-14T14:39:02.074Z,0.30
2022-10-14T14:41:31.899Z,0.28
2022-10-14T14:46:52.660Z,0.50
2022-10-14T14:49:39.896Z,0.40
2022-10-14T14:52:07.287Z,0.52
2022-10-14T14:54:34.077Z,0.50
2022-10-14T14:57:00.918Z,0.40
2022-10-14T14:59:35.485Z,0.40
2022-10-14T15:02:16.797Z,0.40
2022-10-14T15:04:49.890Z,0.90
2022-10-14T15:07:21.549Z,0.80
2022-10-14T15:09:57.386Z,0.55
2022-10-14T15:12:28.116Z,0.50
2022-10-14T15:15:00.695Z,0.50
2022-10-14T15:17:36.751Z,1.13
2022-10-14T15:20:03.723Z,1.42
2022-10-14T15:22:36.118Z,1.65
2022-10-14T15:25:30.460Z,6.90
2022-10-14T15:27:59.557Z,1.60
2022-10-14T15:30:40.195Z,1.15
2022-10-14T15:33:13.204Z,2.92
2022-10-14T15:35:40.491Z,1.15
2022-10-14T15:38:16.638Z,1.20
2022-10-14T15:40:44.670Z,1.40
2022-10-14T15:43:17.890Z,1.55
2022-10-14T15:46:14.510Z,1.00
2022-10-14T15:48:46.996Z,0.77
2022-10-14T15:51:19.611Z,0.40
2022-10-14T15:53:46.775Z,0.30
2022-10-14T15:56:13.634Z,0.60
2022-10-14T15:58:40.473Z,0.85
2022-10-14T16:01:08.166Z,0.45
2022-10-14T16:03:40.166Z,0.50
2022-10-14T16:06:10.402Z,0.60
2022-10-14T16:08:38.991Z,0.50
2022-10-14T16:11:26.197Z,0.47
2022-10-14T16:13:53.287Z,0.40
2022-10-14T16:16:36.135Z,0.90
2022-10-14T16:19:03.239Z,0.57
2022-10-14T16:21:30.685Z,0.50
2022-10-14T16:23:58.993Z,0.60
2022-10-14T16:26:25.943Z,0.75
2022-10-14T16:28:52.913Z,0.77
2022-10-14T16:31:21.462Z,0.90
2022-10-14T16:33:56.773Z,0.63
2022-10-14T16:36:26.059Z,0.57
2022-10-14T16:38:54.864Z,0.75
2022-10-14T16:41:21.599Z,0.70
2022-10-14T16:43:48.531Z,0.73
2022-10-14T16:46:17.458Z,0.57
2022-10-14T16:48:46.696Z,0.47
2022-10-14T16:51:13.745Z,0.60
2022-10-14T16:53:40.892Z,0.57
2022-10-14T16:56:34.256Z,0.50
2022-10-14T16:59:01.895Z,0.60
2022-10-14T17:01:29.624Z,1.02
2022-10-14T17:03:57.540Z,0.90
2022-10-14T17:06:25.379Z,0.90
2022-10-14T17:08:53.088Z,1.30
2022-10-14T17:11:20.250Z,1.05
2022-10-14T17:13:47.049Z,0.75
2022-10-14T17:16:13.841Z,0.63
2022-10-14T17:18:43.077Z,0.57
2022-10-14T17:21:13.786Z,0.65
2022-10-14T17:23:42.585Z,0.70
2022-10-14T17:26:14.722Z,1.20
2022-10-14T17:28:42.413Z,0.90
2022-10-14T17:31:12.012Z,1.38
2022-10-14T17:33:39.625Z,2.03
2022-10-14T17:36:07.581Z,1.33
2022-10-14T17:38:35.614Z,1.08
2022-10-14T17:41:03.503Z,0.90
2022-10-14T17:43:31.020Z,0.43
2022-10-14T17:46:11.629Z,0.57
2022-10-14T17:48:42.220Z,0.60
2022-10-14T17:51:11.393Z,0.55
2022-10-14T17:53:39.193Z,1.10
2022-10-14T17:56:08.288Z,1.48
2022-10-14T17:58:35.139Z,1.45
2022-10-14T18:01:15.871Z,2.22
2022-10-14T18:03:44.965Z,3.33
2022-10-14T18:06:15.726Z,1.80
2022-10-14T18:08:44.246Z,2.13
2022-10-14T18:11:12.425Z,2.05
2022-10-14T18:16:14.320Z,2.05
2022-10-14T18:18:41.976Z,1.60
2022-10-14T18:21:09.907Z,1.08
2022-10-14T18:23:39.946Z,1.15
2022-10-14T18:26:15.297Z,0.80
2022-10-14T18:28:47.873Z,1.00
2022-10-14T18:31:19.697Z,1.30
2022-10-14T18:33:48.182Z,1.15
2022-10-14T18:36:17.903Z,0.80
2022-10-14T18:38:53.362Z,0.90
2022-10-14T18:41:20.987Z,1.00
2022-10-14T18:43:47.998Z,1.17
2022-10-14T18:46:17.241Z,1.00
2022-10-14T18:48:47.137Z,1.08
2022-10-14T18:51:15.784Z,1.10
2022-10-14T18:53:45.110Z,0.90
2022-10-14T18:56:19.561Z,1.05
2022-10-14T18:58:48.564Z,0.98
2022-10-14T19:01:16.317Z,1.13
2022-10-14T19:03:44.499Z,0.90
2022-10-14T19:06:13.047Z,0.95
2022-10-14T19:08:41.470Z,0.90
2022-10-14T19:11:16.146Z,0.60
2022-10-14T19:13:45.172Z,0.85
2022-10-14T19:16:17.418Z,0.90
2022-10-14T19:18:44.633Z,0.65
2022-10-14T19:21:19.216Z,0.80
2022-10-14T19:23:46.065Z,0.68
2022-10-14T19:26:19.250Z,0.93
2022-10-14T19:28:46.262Z,0.75
2022-10-14T19:31:15.659Z,1.00
2022-10-14T19:33:45.087Z,0.98
2022-10-14T19:36:14.561Z,0.50
2022-10-14T19:38:49.706Z,0.90
2022-10-14T19:41:16.635Z,0.50
2022-10-14T19:43:43.670Z,0.70
2022-10-14T19:46:12.119Z,0.60
2022-10-14T19:48:39.449Z,0.60
2022-10-14T19:51:11.052Z,0.60
2022-10-14T19:56:07.879Z,0.98
2022-10-14T19:58:34.618Z,0.60
2022-10-14T20:01:08.345Z,0.90
2022-10-14T20:03:35.851Z,0.55
2022-10-14T20:06:03.560Z,0.85
2022-10-14T20:08:30.346Z,0.70
2022-10-14T20:10:59.861Z,0.70
2022-10-14T20:13:26.535Z,0.88
2022-10-14T20:15:57.828Z,2.75
2022-10-14T20:18:25.502Z,3.20
2022-10-14T20:20:53.073Z,4.97
2022-10-14T20:23:20.313Z,4.30
2022-10-14T20:25:47.591Z,2.78
2022-10-14T20:28:19.314Z,1.40
2022-10-14T20:30:47.225Z,1.15
2022-10-14T20:33:14.180Z,0.75
2022-10-14T20:35:40.997Z,0.68
2022-10-14T20:38:07.705Z,0.40
2022-10-14T20:40:35.567Z,0.30
2022-10-14T20:43:03.639Z,0.40
2022-10-14T20:45:30.684Z,0.43
2022-10-14T20:47:57.629Z,0.20
2022-10-14T20:50:24.541Z,0.70
2022-10-14T20:52:51.329Z,0.30
2022-10-14T20:55:18.164Z,0.35
2022-10-14T20:57:45.090Z,0.10
2022-10-14T21:00:15.856Z,0.10
2022-10-14T21:05:10.426Z,0.20
2022-10-14T21:07:37.345Z,0.00
2022-10-14T21:10:04.826Z,0.20
2022-10-14T21:12:31.682Z,0.00
2022-10-14T21:14:59.045Z,0.15
2022-10-14T21:17:25.781Z,0.10
2022-10-14T21:19:52.513Z,0.65
2022-10-14T21:22:19.353Z,0.20
2022-10-14T21:24:46.079Z,0.30
2022-10-14T21:27:12.880Z,0.10
2022-10-14T21:29:39.601Z,0.10
2022-10-14T21:32:06.326Z,0.28
2022-10-14T21:34:33.690Z,0.30
2022-10-14T21:37:00.536Z,0.10
2022-10-14T21:39:27.376Z,0.10
2022-10-14T21:41:54.345Z,0.05
2022-10-14T21:44:21.448Z,0.03
2022-10-14T21:46:49.181Z,0.10
2022-10-14T21:49:16.361Z,0.10
2022-10-14T21:51:43.142Z,0.10
2022-10-14T21:54:13.081Z,0.22
2022-10-14T21:56:39.928Z,0.30
2022-10-14T21:59:07.498Z,0.10
2022-10-14T22:01:34.712Z,0.15
2022-10-14T22:04:06.390Z,0.03
2022-10-14T22:06:34.775Z,0.30
2022-10-14T22:09:04.447Z,0.30
2022-10-14T22:11:34.759Z,0.20
2022-10-14T22:14:03.303Z,0.30
2022-10-14T22:16:30.669Z,0.20
2022-10-14T22:19:02.466Z,0.30
2022-10-14T22:21:31.650Z,0.60
2022-10-14T22:23:59.371Z,0.60
2022-10-14T22:26:28.348Z,0.38
2022-10-14T22:29:00.399Z,0.40
2022-10-14T22:31:28.589Z,0.20
2022-10-14T22:33:55.959Z,0.52
2022-10-14T22:36:25.356Z,0.20
2022-10-14T22:38:53.387Z,0.20
2022-10-14T22:41:21.499Z,0.10
2022-10-14T22:43:53.011Z,0.10
2022-10-14T22:48:49.059Z,0.20
2022-10-14T22:51:18.278Z,0.65
2022-10-14T22:53:46.102Z,0.10
2022-10-14T22:56:15.748Z,0.08
2022-10-14T22:58:42.818Z,0.20
2022-10-14T23:01:11.828Z,0.20
2022-10-14T23:03:38.554Z,0.30
2022-10-14T23:06:07.107Z,0.10
2022-10-14T23:08:34.594Z,0.10
2022-10-14T23:11:02.437Z,0.10
2022-10-14T23:13:31.053Z,0.30
2022-10-14T23:16:03.273Z,0.20
2022-10-14T23:18:32.210Z,0.32
2022-10-14T23:20:59.007Z,0.25
2022-10-14T23:23:25.696Z,0.20
2022-10-14T23:25:52.523Z,0.40
2022-10-14T23:28:19.356Z,0.38
2022-10-14T23:30:46.072Z,0.20
2022-10-14T23:33:12.826Z,0.30
2022-10-14T23:35:39.549Z,0.20
2022-10-14T23:38:06.323Z,0.20
2022-10-14T23:40:33.463Z,0.28
2022-10-14T23:43:00.165Z,0.95
2022-10-14T23:45:26.851Z,0.22
2022-10-14T23:47:53.523Z,0.47
2022-10-14T23:50:20.242Z,0.50
2022-10-14T23:52:46.952Z,0.60
2022-10-14T23:55:14.399Z,0.20
2022-10-14T23:57:41.354Z,0.30
